createdAt,value
2022-11-12T00:01:45.591Z,19.97
2022-11-12T00:04:16.174Z,21.00
2022-11-12T00:06:44.327Z,20.30
2022-11-12T00:09:13.760Z,21.53
2022-11-12T00:11:48.169Z,21.93
2022-11-12T00:14:16.266Z,20.67
2022-11-12T00:16:44.483Z,22.67
2022-11-12T00:19:12.526Z,22.00
2022-11-12T00:21:40.546Z,22.10
2022-11-12T00:24:08.776Z,21.93
2022-11-12T00:26:39.457Z,21.17
2022-11-12T00:29:07.491Z,21.67
2022-11-12T00:31:35.502Z,21.30
2022-11-12T00:34:03.532Z,20.67
2022-11-12T00:36:33.155Z,21.23
2022-11-12T00:39:01.173Z,21.27
2022-11-12T00:41:29.168Z,20.47
2022-11-12T00:43:58.595Z,21.03
2022-11-12T00:46:26.610Z,20.47
2022-11-12T00:48:54.807Z,20.07
2022-11-12T00:51:23.020Z,20.17
2022-11-12T00:53:51.507Z,19.30
2022-11-12T00:56:19.523Z,20.23
2022-11-12T00:58:47.779Z,20.83
2022-11-12T01:01:17.525Z,19.30
2022-11-12T01:03:45.823Z,19.10
2022-11-12T01:06:17.346Z,19.67
2022-11-12T01:08:45.739Z,19.53
2022-11-12T01:11:15.880Z,19.93
2022-11-12T01:13:46.406Z,19.40
2022-11-12T01:16:17.669Z,20.33
2022-11-12T01:18:45.754Z,20.07
2022-11-12T01:21:14.929Z,21.43
2022-11-12T01:23:43.775Z,20.37
2022-11-12T01:26:14.182Z,21.10
2022-11-12T01:28:42.641Z,20.40
2022-11-12T01:31:17.346Z,20.40
2022-11-12T01:33:48.184Z,20.87
2022-11-12T01:36:17.961Z,20.77
2022-11-12T01:38:47.152Z,21.07
2022-11-12T01:41:18.772Z,21.03
2022-11-12T01:43:48.058Z,20.70
2022-11-12T01:46:21.272Z,20.30
2022-11-12T01:48:53.132Z,19.57
2022-11-12T01:51:22.434Z,22.13
2022-11-12T01:53:53.634Z,20.43
2022-11-12T01:56:23.610Z,21.20
2022-11-12T01:58:56.964Z,21.60
2022-11-12T02:01:26.951Z,20.60
2022-11-12T02:03:55.282Z,21.47
2022-11-12T02:06:24.853Z,19.83
2022-11-12T02:08:53.159Z,20.87
2022-11-12T02:11:34.207Z,20.20
2022-11-12T02:14:01.872Z,21.93
2022-11-12T02:16:34.410Z,22.80
2022-11-12T02:19:02.559Z,21.47
2022-11-12T02:21:32.634Z,21.07
2022-11-12T02:24:02.140Z,21.77
2022-11-12T02:26:34.291Z,21.23
2022-11-12T02:29:02.910Z,21.73
2022-11-12T02:31:33.744Z,20.53
2022-11-12T02:34:01.791Z,21.80
2022-11-12T02:36:31.677Z,19.97
2022-11-12T02:39:00.247Z,20.20
2022-11-12T02:41:28.578Z,20.77
2022-11-12T02:43:57.132Z,21.30
2022-11-12T02:46:25.835Z,20.70
2022-11-12T02:48:53.860Z,22.37
2022-11-12T02:51:21.858Z,21.20
2022-11-12T02:53:51.257Z,21.77
2022-11-12T02:56:19.236Z,20.93
2022-11-12T02:58:47.224Z,22.10
2022-11-12T03:01:15.304Z,21.63
2022-11-12T03:03:43.332Z,19.97
2022-11-12T03:06:11.363Z,20.30
2022-11-12T03:08:39.448Z,21.50
2022-11-12T03:11:10.195Z,21.50
2022-11-12T03:13:38.292Z,20.80
2022-11-12T03:16:06.686Z,21.87
2022-11-12T03:18:35.178Z,20.63
2022-11-12T03:21:03.134Z,21.03
2022-11-12T03:23:31.374Z,19.43
2022-11-12T03:25:59.395Z,20.03
2022-11-12T03:28:29.246Z,20.73
2022-11-12T03:30:59.664Z,19.67
2022-11-12T03:33:27.684Z,20.57
2022-11-12T03:35:55.649Z,19.73
2022-11-12T03:38:24.488Z,21.07
2022-11-12T03:40:52.764Z,20.83
2022-11-12T03:43:20.740Z,21.03
2022-11-12T03:45:56.253Z,19.93
2022-11-12T03:48:25.084Z,19.40
2022-11-12T03:50:53.305Z,20.00
2022-11-12T03:53:21.277Z,20.50
2022-11-12T03:55:50.260Z,20.73
2022-11-12T03:58:18.239Z,20.30
2022-11-12T04:00:46.321Z,20.07
2022-11-12T04:03:25.235Z,19.80
2022-11-12T04:06:10.879Z,20.63
2022-11-12T04:08:38.997Z,18.80
2022-11-12T04:11:09.713Z,19.57
2022-11-12T04:13:38.944Z,19.60
2022-11-12T04:16:29.755Z,19.77
2022-11-12T04:19:29.522Z,19.97
2022-11-12T04:22:01.324Z,19.33
2022-11-12T04:24:48.989Z,18.97
2022-11-12T04:27:18.963Z,18.80
2022-11-12T04:30:05.809Z,18.07
2022-11-12T04:32:36.130Z,18.87
2022-11-12T04:35:07.195Z,19.80
2022-11-12T04:37:48.028Z,19.37
2022-11-12T04:40:36.097Z,20.93
2022-11-12T04:43:31.241Z,20.13
2022-11-12T04:45:59.770Z,20.43
2022-11-12T04:48:28.416Z,20.27
2022-11-12T04:51:00.180Z,19.70
2022-11-12T04:53:28.844Z,19.97
2022-11-12T04:56:07.264Z,19.90
2022-11-12T04:58:35.283Z,20.57
2022-11-12T05:01:04.067Z,21.07
2022-11-12T05:03:32.500Z,19.77
2022-11-12T05:06:03.800Z,20.83
2022-11-12T05:08:31.804Z,20.57
2022-11-12T05:10:59.817Z,19.53
2022-11-12T05:13:35.276Z,20.27
2022-11-12T05:16:03.656Z,20.67
2022-11-12T05:18:31.649Z,21.27
2022-11-12T05:21:24.687Z,22.27
2022-11-12T05:23:54.049Z,19.83
2022-11-12T05:26:22.054Z,20.80
2022-11-12T05:28:50.086Z,20.20
2022-11-12T05:31:24.279Z,19.97
2022-11-12T05:33:58.301Z,20.50
2022-11-12T05:36:26.339Z,20.07
2022-11-12T05:38:55.682Z,18.47
2022-11-12T05:41:23.695Z,19.70
2022-11-12T05:43:51.711Z,19.40
2022-11-12T05:46:20.022Z,20.77
2022-11-12T05:48:48.252Z,19.73
2022-11-12T05:51:16.248Z,21.23
2022-11-12T05:53:44.638Z,19.33
2022-11-12T05:56:14.431Z,21.67
2022-11-12T05:58:42.404Z,20.27
2022-11-12T06:01:10.868Z,21.43
2022-11-12T06:03:38.835Z,22.00
2022-11-12T06:06:07.125Z,21.33
2022-11-12T06:08:35.328Z,21.43
2022-11-12T06:11:03.354Z,20.93
2022-11-12T06:13:32.729Z,21.20
2022-11-12T06:16:08.304Z,21.87
2022-11-12T06:18:36.320Z,21.57
2022-11-12T06:21:27.299Z,21.50
2022-11-12T06:23:57.929Z,22.60
2022-11-12T06:26:27.310Z,20.63
2022-11-12T06:28:57.630Z,21.20
2022-11-12T06:31:32.303Z,21.37
2022-11-12T06:34:00.805Z,20.43
2022-11-12T06:36:28.824Z,21.50
2022-11-12T06:38:57.124Z,20.87
2022-11-12T06:41:31.321Z,22.60
2022-11-12T06:44:00.752Z,21.53
2022-11-12T06:46:28.763Z,21.83
2022-11-12T06:48:57.097Z,20.93
2022-11-12T06:51:25.705Z,23.60
2022-11-12T06:53:55.153Z,21.80
2022-11-12T06:56:23.159Z,21.53
2022-11-12T06:58:51.184Z,22.17
2022-11-12T07:01:20.645Z,21.87
2022-11-12T07:03:55.951Z,22.97
2022-11-12T07:06:24.000Z,21.80
2022-11-12T07:08:52.044Z,22.40
2022-11-12T07:11:22.570Z,22.90
2022-11-12T07:13:50.773Z,23.03
2022-11-12T07:16:20.216Z,22.20
2022-11-12T07:18:48.637Z,24.17
2022-11-12T07:21:18.768Z,23.17
2022-11-12T07:23:47.922Z,24.00
2022-11-12T07:26:17.906Z,22.83
2022-11-12T07:28:46.451Z,23.93
2022-11-12T07:31:17.037Z,22.10
2022-11-12T07:33:48.706Z,23.80
2022-11-12T07:36:18.744Z,21.87
2022-11-12T07:38:47.841Z,23.43
2022-11-12T07:41:17.766Z,23.03
2022-11-12T07:43:47.311Z,22.87
2022-11-12T07:46:17.537Z,22.43
2022-11-12T07:48:54.344Z,20.37
2022-11-12T07:51:24.230Z,21.40
2022-11-12T07:53:58.987Z,19.90
2022-11-12T07:56:28.724Z,21.07
2022-11-12T07:58:57.192Z,21.70
2022-11-12T08:01:29.651Z,21.27
2022-11-12T08:03:59.188Z,21.33
2022-11-12T08:06:27.710Z,22.60
2022-11-12T08:08:56.339Z,21.80
2022-11-12T08:11:24.513Z,19.33
2022-11-12T08:13:54.967Z,21.77
2022-11-12T08:16:23.095Z,21.00
2022-11-12T08:18:51.171Z,20.07
2022-11-12T08:21:20.856Z,19.57
2022-11-12T08:23:48.912Z,18.73
2022-11-12T08:26:18.469Z,18.80
2022-11-12T08:28:47.001Z,18.90
2022-11-12T08:31:16.963Z,19.37
2022-11-12T08:33:45.350Z,19.63
2022-11-12T08:36:14.966Z,19.40
2022-11-12T08:38:45.030Z,19.73
2022-11-12T08:41:15.633Z,20.03
2022-11-12T08:43:43.910Z,19.73
2022-11-12T08:46:12.033Z,18.90
2022-11-12T08:48:44.084Z,18.93
2022-11-12T08:51:12.328Z,18.63
2022-11-12T08:53:40.327Z,18.27
2022-11-12T08:56:09.862Z,18.57
2022-11-12T08:58:37.853Z,18.33
2022-11-12T09:01:07.548Z,18.10
2022-11-12T09:03:35.556Z,17.77
2022-11-12T09:06:04.698Z,18.03
2022-11-12T09:08:35.794Z,17.60
2022-11-12T09:11:10.399Z,18.07
2022-11-12T09:13:39.937Z,17.00
2022-11-12T09:16:10.843Z,16.77
2022-11-12T09:18:38.910Z,16.70
2022-11-12T09:21:09.651Z,17.10
2022-11-12T09:23:38.224Z,16.10
2022-11-12T09:26:13.397Z,15.77
2022-11-12T09:28:43.358Z,16.13
2022-11-12T09:31:11.477Z,15.87
2022-11-12T09:33:39.570Z,16.10
2022-11-12T09:36:08.780Z,16.00
2022-11-12T09:38:43.440Z,15.73
2022-11-12T09:41:23.581Z,15.33
2022-11-12T09:43:55.190Z,15.27
2022-11-12T09:46:31.031Z,15.20
2022-11-12T09:49:06.400Z,14.17
2022-11-12T09:51:37.516Z,13.47
2022-11-12T09:54:14.743Z,12.47
2022-11-12T09:56:42.823Z,12.20
2022-11-12T09:59:13.992Z,11.27
2022-11-12T10:01:50.989Z,10.73
2022-11-12T10:04:52.372Z,10.03
2022-11-12T10:07:33.258Z,9.17
2022-11-12T10:10:07.281Z,9.40
2022-11-12T10:12:47.424Z,9.07
2022-11-12T10:16:04.452Z,8.63
2022-11-12T10:18:48.372Z,8.03
2022-11-12T10:21:23.685Z,9.20
2022-11-12T10:24:00.429Z,8.47
2022-11-12T10:26:30.419Z,9.10
2022-11-12T10:29:04.075Z,8.77
2022-11-12T10:31:33.453Z,9.07
2022-11-12T10:34:18.573Z,9.50
2022-11-12T10:36:50.368Z,9.17
2022-11-12T10:39:42.435Z,8.70
2022-11-12T10:42:17.541Z,8.87
2022-11-12T10:44:46.504Z,7.50
2022-11-12T10:47:27.300Z,6.53
2022-11-12T10:50:13.054Z,5.67
2022-11-12T10:52:41.070Z,5.93
2022-11-12T10:55:17.962Z,6.67
2022-11-12T10:57:52.438Z,10.10
2022-11-12T11:00:22.468Z,11.07
2022-11-12T11:02:55.258Z,11.07
2022-11-12T11:05:38.109Z,11.23
2022-11-12T11:08:13.460Z,10.53
2022-11-12T11:10:41.525Z,10.40
2022-11-12T11:13:24.426Z,10.17
2022-11-12T11:16:02.954Z,8.23
2022-11-12T11:18:35.912Z,7.57
2022-11-12T11:21:17.978Z,5.50
2022-11-12T11:23:55.018Z,4.90
2022-11-12T11:26:30.763Z,5.00
2022-11-12T11:29:09.936Z,5.60
2022-11-12T11:31:46.192Z,5.07
2022-11-12T11:34:26.399Z,7.50
2022-11-12T11:37:05.597Z,9.30
2022-11-12T11:39:42.755Z,7.63
2022-11-12T11:42:36.533Z,7.50
2022-11-12T11:45:12.795Z,7.63
2022-11-12T11:48:01.214Z,7.17
2022-11-12T11:50:34.757Z,7.27
2022-11-12T11:53:14.049Z,7.97
2022-11-12T11:55:57.477Z,9.10
2022-11-12T11:59:01.985Z,8.10
2022-11-12T12:01:46.329Z,6.70
2022-11-12T12:04:45.593Z,6.70
2022-11-12T12:07:38.152Z,7.07
2022-11-12T12:10:16.891Z,6.80
2022-11-12T12:12:57.166Z,6.77
2022-11-12T12:16:02.471Z,6.97
2022-11-12T12:18:42.482Z,6.90
2022-11-12T12:21:14.416Z,6.60
2022-11-12T12:23:56.473Z,6.13
2022-11-12T12:26:28.920Z,6.80
2022-11-12T12:29:03.568Z,6.80
2022-11-12T12:31:37.245Z,7.33
2022-11-12T12:34:11.233Z,7.50
2022-11-12T12:36:42.109Z,7.10
2022-11-12T12:39:18.625Z,7.43
2022-11-12T12:42:01.504Z,7.70
2022-11-12T12:44:56.491Z,7.97
2022-11-12T12:47:25.046Z,8.17
2022-11-12T12:49:54.144Z,8.13
2022-11-12T12:52:22.172Z,7.67
2022-11-12T12:54:59.000Z,8.83
2022-11-12T12:57:32.714Z,8.37
2022-11-12T13:00:26.445Z,8.70
2022-11-12T13:02:54.536Z,9.33
2022-11-12T13:05:28.938Z,8.87
2022-11-12T13:08:00.885Z,9.70
2022-11-12T13:10:59.531Z,9.70
2022-11-12T13:13:35.865Z,9.03
2022-11-12T13:16:04.396Z,8.90
2022-11-12T13:18:58.661Z,10.33
2022-11-12T13:21:26.766Z,10.63
2022-11-12T13:24:08.185Z,9.90
2022-11-12T13:26:53.338Z,9.67
2022-11-12T13:29:45.965Z,10.07
2022-11-12T13:33:00.531Z,9.37
2022-11-12T13:35:30.424Z,9.73
2022-11-12T13:38:03.943Z,9.90
2022-11-12T13:40:40.709Z,9.57
2022-11-12T13:43:17.256Z,9.07
2022-11-12T13:45:49.984Z,9.20
2022-11-12T13:48:24.342Z,8.97
2022-11-12T13:50:54.714Z,8.93
2022-11-12T13:53:26.980Z,8.53
2022-11-12T13:55:57.007Z,8.53
2022-11-12T13:58:31.302Z,8.13
2022-11-12T14:01:01.619Z,8.30
2022-11-12T14:03:33.536Z,8.07
2022-11-12T14:06:06.203Z,8.57
2022-11-12T14:09:10.517Z,8.60
2022-11-12T14:12:00.067Z,8.33
2022-11-12T14:14:41.504Z,8.33
2022-11-12T14:17:25.384Z,8.50
2022-11-12T14:20:31.403Z,8.53
2022-11-12T14:23:12.542Z,8.60
2022-11-12T14:25:48.977Z,9.20
2022-11-12T14:28:27.972Z,8.43
2022-11-12T14:30:59.447Z,8.20
2022-11-12T14:33:30.081Z,8.13
2022-11-12T14:36:03.317Z,8.60
2022-11-12T14:38:36.956Z,8.93
2022-11-12T14:41:13.049Z,8.53
2022-11-12T14:43:45.268Z,7.83
2022-11-12T14:46:25.527Z,7.87
2022-11-12T14:48:57.131Z,8.30
2022-11-12T14:51:27.816Z,7.90
2022-11-12T14:53:58.948Z,7.83
2022-11-12T14:56:35.584Z,8.37
2022-11-12T14:59:05.059Z,8.03
2022-11-12T15:04:25.904Z,10.30
2022-11-12T15:06:58.414Z,9.63
2022-11-12T15:09:37.340Z,10.33
2022-11-12T15:12:07.500Z,9.90
2022-11-12T15:14:36.227Z,10.30
2022-11-12T15:17:06.224Z,10.07
2022-11-12T15:19:36.105Z,10.93
2022-11-12T15:22:05.431Z,11.30
2022-11-12T15:24:36.026Z,12.53
2022-11-12T15:27:38.078Z,11.60
2022-11-12T15:30:23.480Z,11.83
2022-11-12T15:33:08.785Z,12.73
2022-11-12T15:35:45.590Z,13.30
2022-11-12T15:38:20.571Z,13.43
2022-11-12T15:40:57.307Z,13.20
2022-11-12T15:43:29.018Z,12.87
2022-11-12T15:46:00.384Z,14.73
2022-11-12T15:48:29.792Z,12.43
2022-11-12T15:50:57.772Z,12.77
2022-11-12T15:53:26.179Z,12.70
2022-11-12T15:55:54.890Z,13.57
2022-11-12T15:58:39.787Z,13.33
2022-11-12T16:01:08.244Z,15.40
2022-11-12T16:03:37.775Z,15.63
2022-11-12T16:06:09.243Z,16.70
2022-11-12T16:08:37.689Z,17.73
2022-11-12T16:11:26.002Z,16.97
2022-11-12T16:13:54.308Z,16.93
2022-11-12T16:16:22.308Z,18.00
2022-11-12T16:18:52.835Z,16.47
2022-11-12T16:21:22.157Z,18.83
2022-11-12T16:23:50.130Z,18.43
2022-11-12T16:26:25.618Z,19.60
2022-11-12T16:28:53.666Z,19.03
2022-11-12T16:31:22.299Z,20.30
2022-11-12T16:33:51.347Z,19.80
2022-11-12T16:36:20.865Z,19.87
2022-11-12T16:38:48.920Z,19.00
2022-11-12T16:41:17.199Z,21.07
2022-11-12T16:43:45.201Z,20.83
2022-11-12T16:46:24.964Z,21.20
2022-11-12T16:48:53.268Z,23.87
2022-11-12T16:51:23.891Z,25.43
2022-11-12T16:53:52.156Z,30.43
2022-11-12T16:56:21.511Z,29.53
2022-11-12T16:58:51.156Z,30.10
2022-11-12T17:01:26.011Z,29.67
2022-11-12T17:03:57.647Z,26.87
2022-11-12T17:06:34.002Z,25.90
2022-11-12T17:09:02.118Z,24.60
2022-11-12T17:11:30.374Z,24.30
2022-11-12T17:13:59.418Z,25.43
2022-11-12T17:16:33.627Z,25.53
2022-11-12T17:19:03.295Z,26.33
2022-11-12T17:21:32.744Z,28.87
2022-11-12T17:24:00.739Z,28.80
2022-11-12T17:26:35.640Z,29.57
2022-11-12T17:29:08.068Z,27.73
2022-11-12T17:31:37.375Z,24.27
2022-11-12T17:34:06.965Z,24.70
2022-11-12T17:36:42.195Z,24.63
2022-11-12T17:39:13.288Z,24.73
2022-11-12T17:41:41.316Z,23.57
2022-11-12T17:44:09.315Z,21.67
2022-11-12T17:46:44.655Z,23.40
2022-11-12T17:49:14.288Z,22.53
2022-11-12T17:51:44.177Z,21.67
2022-11-12T17:54:12.220Z,21.20
2022-11-12T17:56:40.704Z,21.47
2022-11-12T17:59:08.721Z,22.00
2022-11-12T18:01:40.279Z,22.37
2022-11-12T18:04:13.093Z,21.83
2022-11-12T18:06:41.437Z,21.33
2022-11-12T18:09:15.479Z,22.67
2022-11-12T18:11:46.846Z,23.20
2022-11-12T18:14:15.121Z,24.03
2022-11-12T18:16:43.672Z,23.57
2022-11-12T18:19:18.663Z,26.30
2022-11-12T18:21:46.940Z,29.00
2022-11-12T18:24:17.968Z,28.93
2022-11-12T18:26:46.099Z,30.37
2022-11-12T18:29:14.147Z,31.27
2022-11-12T18:31:44.720Z,30.93
2022-11-12T18:34:15.258Z,29.80
2022-11-12T18:36:43.272Z,29.67
2022-11-12T18:39:11.260Z,30.40
2022-11-12T18:41:41.053Z,30.30
2022-11-12T18:44:10.597Z,29.70
2022-11-12T18:46:38.847Z,30.33
2022-11-12T18:49:06.999Z,31.37
2022-11-12T18:51:35.179Z,31.53
2022-11-12T18:54:03.262Z,31.70
2022-11-12T18:56:31.734Z,33.23
2022-11-12T18:59:01.090Z,33.30
2022-11-12T19:01:30.166Z,34.87
2022-11-12T19:03:59.125Z,32.33
2022-11-12T19:06:27.343Z,32.67
2022-11-12T19:09:00.703Z,32.93
2022-11-12T19:11:29.898Z,30.27
2022-11-12T19:13:57.868Z,30.63
2022-11-12T19:16:27.284Z,31.20
2022-11-12T19:18:55.817Z,30.53
2022-11-12T19:21:25.699Z,30.90
2022-11-12T19:23:55.017Z,30.17
2022-11-12T19:26:24.228Z,30.13
2022-11-12T19:28:52.740Z,32.50
2022-11-12T19:31:23.058Z,31.13
2022-11-12T19:33:52.795Z,33.97
2022-11-12T19:36:22.560Z,33.70
2022-11-12T19:38:55.926Z,31.50
2022-11-12T19:41:24.700Z,31.77
2022-11-12T19:43:59.758Z,31.97
2022-11-12T19:46:27.824Z,34.63
2022-11-12T19:49:00.944Z,34.07
2022-11-12T19:51:30.805Z,33.63
2022-11-12T19:53:58.808Z,32.53
2022-11-12T19:56:27.626Z,31.27
2022-11-12T19:59:01.697Z,31.90
2022-11-12T20:01:30.067Z,32.47
2022-11-12T20:03:59.489Z,30.80
2022-11-12T20:06:29.313Z,31.80
2022-11-12T20:08:59.995Z,31.97
2022-11-12T20:11:28.341Z,30.17
2022-11-12T20:13:56.945Z,32.87
2022-11-12T20:16:25.948Z,30.50
2022-11-12T20:18:57.793Z,28.63
2022-11-12T20:21:27.744Z,33.03
2022-11-12T20:23:56.108Z,31.80
2022-11-12T20:26:25.186Z,32.70
2022-11-12T20:28:54.393Z,33.33
2022-11-12T20:31:22.969Z,32.90
2022-11-12T20:33:52.691Z,33.53
2022-11-12T20:36:22.504Z,33.60
2022-11-12T20:38:53.386Z,32.23
2022-11-12T20:41:22.841Z,32.03
2022-11-12T20:43:53.875Z,32.13
2022-11-12T20:46:22.404Z,31.37
2022-11-12T20:48:50.585Z,31.33
2022-11-12T20:51:24.728Z,31.27
2022-11-12T20:54:00.670Z,31.53
2022-11-12T20:56:30.782Z,30.40
2022-11-12T20:58:59.303Z,28.37
2022-11-12T21:01:29.267Z,27.83
2022-11-12T21:03:59.081Z,31.27
2022-11-12T21:06:29.504Z,29.33
2022-11-12T21:09:00.986Z,30.40
2022-11-12T21:11:29.590Z,28.07
2022-11-12T21:13:59.650Z,29.53
2022-11-12T21:16:28.280Z,28.23
2022-11-12T21:18:58.957Z,28.93
2022-11-12T21:21:31.248Z,28.13
2022-11-12T21:24:04.851Z,29.90
2022-11-12T21:26:33.350Z,28.90
2022-11-12T21:29:01.462Z,28.53
2022-11-12T21:31:30.801Z,30.07
2022-11-12T21:34:03.140Z,28.67
2022-11-12T21:36:34.051Z,29.70
2022-11-12T21:39:04.531Z,29.83
2022-11-12T21:41:32.929Z,30.90
2022-11-12T21:44:00.935Z,32.80
2022-11-12T21:46:30.684Z,34.47
2022-11-12T21:48:59.129Z,34.40
2022-11-12T21:51:29.179Z,33.17
2022-11-12T21:54:01.171Z,33.10
2022-11-12T21:56:30.899Z,36.20
2022-11-12T21:59:06.754Z,36.10
2022-11-12T22:01:36.270Z,37.80
2022-11-12T22:04:08.324Z,35.50
2022-11-12T22:06:38.387Z,33.40
2022-11-12T22:09:07.559Z,34.97
2022-11-12T22:11:37.268Z,33.53
2022-11-12T22:14:05.982Z,34.63
2022-11-12T22:16:34.256Z,35.03
2022-11-12T22:19:02.274Z,33.93
2022-11-12T22:21:38.442Z,34.10
2022-11-12T22:24:08.403Z,32.67
2022-11-12T22:26:38.000Z,32.87
2022-11-12T22:29:06.268Z,33.47
2022-11-12T22:31:40.782Z,32.47
2022-11-12T22:34:11.098Z,32.77
2022-11-12T22:36:39.084Z,30.93
2022-11-12T22:39:07.301Z,31.80
2022-11-12T22:41:35.401Z,30.70
2022-11-12T22:44:04.958Z,31.67
2022-11-12T22:46:34.543Z,31.37
2022-11-12T22:49:05.208Z,31.17
2022-11-12T22:51:35.136Z,29.63
2022-11-12T22:54:05.323Z,28.67
2022-11-12T22:56:34.305Z,27.73
2022-11-12T22:59:04.815Z,27.03
2022-11-12T23:01:40.877Z,28.83
2022-11-12T23:04:08.964Z,28.30
2022-11-12T23:06:37.284Z,28.20
2022-11-12T23:09:12.789Z,28.57
2022-11-12T23:11:40.794Z,27.83
2022-11-12T23:14:10.461Z,27.77
2022-11-12T23:16:38.953Z,27.40
2022-11-12T23:19:06.990Z,27.37
2022-11-12T23:21:34.966Z,28.17
2022-11-12T23:24:02.952Z,27.53
2022-11-12T23:26:32.232Z,27.23
2022-11-12T23:29:00.361Z,27.70
2022-11-12T23:31:31.886Z,28.03
2022-11-12T23:34:01.286Z,28.20
2022-11-12T23:36:29.797Z,28.20
2022-11-12T23:38:58.282Z,27.77
2022-11-12T23:41:28.304Z,28.47
2022-11-12T23:43:57.869Z,29.13
2022-11-12T23:46:26.423Z,30.40
2022-11-12T23:48:55.913Z,29.67
2022-11-12T23:51:30.787Z,28.73
2022-11-12T23:53:59.160Z,31.70
2022-11-12T23:56:27.144Z,29.83
2022-11-12T23:58:55.327Z,29.63
